Time;durP1;ratioP1;P1;durP2;ratioP2;P2;SDS_P1;SDS_P2;PMS_P1;PMS_P2;Temp;Humidity;BMP_temperature;BMP_pressure;BME280_temperature;BME280_humidity;BME280_pressure;Samples;Min_cycle;Max_cycle;Signal;HPM_P1;HPM_P2
2021/03/05 00:00:26;;;;;;;10.67;5.00;;;5.00;99.90;;;;;;5030958;28;20460;-47
2021/03/05 00:02:54;;;;;;;15.17;6.20;;;5.00;99.90;;;;;;5030609;28;20461;-47
2021/03/05 00:05:23;;;;;;;9.33;6.00;;;5.00;99.90;;;;;;5031093;28;20461;-48
2021/03/05 00:07:52;;;;;;;11.00;5.30;;;4.90;99.90;;;;;;5030684;28;20461;-47
2021/03/05 00:10:27;;;;;;;13.93;6.30;;;4.90;99.90;;;;;;5031218;28;20929;-49
2021/03/05 00:12:56;;;;;;;13.70;6.23;;;4.90;99.90;;;;;;5030687;28;20805;-47
2021/03/05 00:15:29;;;;;;;15.30;7.07;;;4.90;99.90;;;;;;5030810;28;20455;-47
2021/03/05 00:17:57;;;;;;;12.77;5.87;;;4.80;99.90;;;;;;5030885;28;20484;-47
2021/03/05 00:20:27;;;;;;;10.90;6.80;;;4.80;99.90;;;;;;5030835;28;20922;-48
2021/03/05 00:22:56;;;;;;;8.80;6.00;;;4.80;99.90;;;;;;5026065;28;20450;-46
2021/03/05 00:25:25;;;;;;;12.60;6.73;;;4.80;99.90;;;;;;5011796;28;20454;-49
2021/03/05 00:27:55;;;;;;;11.00;6.20;;;4.80;99.90;;;;;;5021645;28;20525;-48
2021/03/05 00:30:25;;;;;;;12.43;6.30;;;4.80;99.90;;;;;;5031746;28;20472;-48
2021/03/05 00:32:54;;;;;;;12.53;6.63;;;4.70;99.90;;;;;;5031362;28;20855;-47
2021/03/05 00:35:24;;;;;;;14.03;8.00;;;4.70;99.90;;;;;;5030658;28;20513;-46
2021/03/05 00:37:53;;;;;;;13.17;8.27;;;4.70;99.90;;;;;;5031850;28;20449;-48
2021/03/05 00:40:25;;;;;;;16.90;8.47;;;4.70;99.90;;;;;;5031490;28;20541;-46
2021/03/05 00:42:54;;;;;;;11.37;6.67;;;4.70;99.90;;;;;;5030408;28;20469;-48
2021/03/05 00:45:24;;;;;;;12.20;7.30;;;4.70;99.90;;;;;;5023439;28;20450;-46
2021/03/05 00:47:56;;;;;;;15.80;8.30;;;4.60;99.90;;;;;;5011446;28;20525;-47
2021/03/05 00:50:24;;;;;;;16.03;8.07;;;4.60;99.90;;;;;;5010599;28;20521;-50
2021/03/05 00:52:52;;;;;;;15.67;7.93;;;4.60;99.90;;;;;;5010818;28;20813;-49
2021/03/05 00:55:21;;;;;;;14.03;7.53;;;4.60;99.90;;;;;;5010556;28;20728;-49
2021/03/05 00:57:50;;;;;;;14.77;8.40;;;4.60;99.90;;;;;;5010448;28;20489;-50
2021/03/05 01:00:19;;;;;;;14.80;9.20;;;4.60;99.90;;;;;;5015155;28;20446;-49
2021/03/05 01:02:48;;;;;;;14.50;7.63;;;4.70;99.90;;;;;;5030182;28;20453;-47
2021/03/05 01:05:17;;;;;;;17.67;8.43;;;4.70;99.90;;;;;;5030247;28;20926;-48
2021/03/05 01:07:46;;;;;;;13.97;8.27;;;4.60;99.90;;;;;;5030507;28;20594;-46
2021/03/05 01:10:15;;;;;;;18.20;8.23;;;4.60;99.90;;;;;;5030070;28;20444;-47
2021/03/05 01:12:43;;;;;;;17.40;8.33;;;4.60;99.90;;;;;;5030540;28;20520;-48
2021/03/05 01:15:12;;;;;;;19.90;9.27;;;4.50;99.90;;;;;;5030766;28;20548;-46
2021/03/05 01:17:41;;;;;;;19.93;9.23;;;4.50;99.90;;;;;;5031170;28;20533;-48
2021/03/05 01:20:15;;;;;;;16.90;7.37;;;4.50;99.90;;;;;;5031675;28;20452;-49
2021/03/05 01:22:44;;;;;;;19.77;9.47;;;4.50;99.90;;;;;;5031715;28;20463;-51
2021/03/05 01:25:17;;;;;;;16.40;6.77;;;4.50;99.90;;;;;;5031488;28;20913;-46
2021/03/05 01:27:45;;;;;;;11.37;7.70;;;4.50;99.90;;;;;;5031431;28;20505;-49
2021/03/05 01:30:15;;;;;;;15.83;8.53;;;4.50;99.90;;;;;;5031822;28;20520;-51
2021/03/05 01:32:43;;;;;;;15.60;7.50;;;4.40;99.90;;;;;;5031561;28;20468;-50
2021/03/05 01:35:15;;;;;;;17.93;8.47;;;4.40;99.90;;;;;;5031419;28;20790;-47
2021/03/05 01:37:43;;;;;;;19.07;8.70;;;4.30;99.90;;;;;;5031538;28;20441;-46
2021/03/05 01:40:14;;;;;;;20.67;9.13;;;4.30;99.90;;;;;;5013130;28;20568;-47
2021/03/05 01:42:43;;;;;;;18.43;7.80;;;4.20;99.90;;;;;;5012923;28;20453;-50
2021/03/05 01:45:15;;;;;;;17.43;7.87;;;4.20;99.90;;;;;;5012207;28;20946;-48
2021/03/05 01:47:44;;;;;;;20.90;8.83;;;4.10;99.90;;;;;;5015724;28;20549;-45
2021/03/05 01:50:17;;;;;;;20.97;9.63;;;4.10;99.90;;;;;;5016230;28;20775;-49
2021/03/05 01:52:51;;;;;;;19.70;8.97;;;4.00;99.90;;;;;;5033546;28;20480;-49
2021/03/05 01:55:21;;;;;;;16.03;8.47;;;4.00;99.90;;;;;;5035401;28;20500;-51
2021/03/05 01:57:49;;;;;;;17.17;8.90;;;4.00;99.90;;;;;;5035528;28;20872;-50
2021/03/05 02:00:21;;;;;;;22.83;8.40;;;3.90;99.90;;;;;;5036035;28;20453;-50
2021/03/05 02:02:50;;;;;;;22.33;7.20;;;3.90;99.90;;;;;;5036275;28;20467;-49
2021/03/05 02:05:20;;;;;;;27.40;8.60;;;3.80;99.90;;;;;;5035080;28;20837;-51
2021/03/05 02:07:48;;;;;;;24.53;9.30;;;3.80;99.90;;;;;;5035637;28;20480;-47
2021/03/05 02:10:17;;;;;;;20.60;9.93;;;3.70;99.90;;;;;;5035788;28;20831;-51
2021/03/05 02:12:46;;;;;;;22.63;8.33;;;3.70;99.90;;;;;;5035307;28;20480;-50
2021/03/05 02:15:15;;;;;;;18.70;8.50;;;3.60;99.90;;;;;;5035760;28;20495;-47
2021/03/05 02:17:50;;;;;;;22.20;11.43;;;3.60;99.90;;;;;;5035804;28;20524;-50
2021/03/05 02:20:30;;;;;;;24.27;8.43;;;3.60;99.90;;;;;;5036218;28;20472;-45
2021/03/05 02:23:31;;;;;;;18.57;9.50;;;3.60;99.90;;;;;;5037110;28;20909;-51
2021/03/05 02:26:32;;;;;;;24.33;8.27;;;3.50;99.90;;;;;;5004699;28;20473;-51
2021/03/05 02:29:41;;;;;;;25.97;8.60;;;3.50;99.90;;;;;;5016565;28;20458;-49
2021/03/05 02:32:18;;;;;;;21.90;10.00;;;3.40;99.90;;;;;;4987198;28;20509;-50
2021/03/05 02:34:50;;;;;;;29.03;8.70;;;3.40;99.90;;;;;;5016568;28;20502;-49
2021/03/05 02:37:23;;;;;;;16.10;8.80;;;3.40;99.90;;;;;;5016760;28;20922;-51
2021/03/05 02:39:59;;;;;;;20.23;9.10;;;3.30;99.90;;;;;;5017056;28;20458;-49
2021/03/05 02:42:30;;;;;;;27.33;9.90;;;3.30;99.90;;;;;;5016520;28;20549;-47
2021/03/05 02:45:00;;;;;;;23.83;8.27;;;3.30;99.90;;;;;;5016402;28;20477;-51
2021/03/05 02:47:33;;;;;;;28.73;9.00;;;3.20;99.90;;;;;;5016508;28;20533;-46
2021/03/05 02:50:02;;;;;;;28.70;9.67;;;3.20;99.90;;;;;;5018087;28;20477;-46
2021/03/05 02:52:33;;;;;;;28.47;11.70;;;3.10;99.90;;;;;;5036681;28;20512;-48
2021/03/05 02:55:05;;;;;;;27.03;7.80;;;3.10;99.90;;;;;;5035364;28;20529;-50
2021/03/05 02:57:40;;;;;;;29.80;7.53;;;3.10;99.90;;;;;;5015478;28;20743;-50
2021/03/05 03:00:13;;;;;;;24.53;8.27;;;3.00;99.90;;;;;;5017729;28;20465;-47
2021/03/05 03:02:44;;;;;;;19.63;7.10;;;2.90;99.90;;;;;;5018222;28;20450;-46
2021/03/05 03:05:15;;;;;;;17.60;7.23;;;2.90;99.90;;;;;;5017938;28;20854;-48
2021/03/05 03:07:43;;;;;;;20.40;6.30;;;2.90;99.90;;;;;;5016816;28;20466;-51
2021/03/05 03:10:13;;;;;;;18.40;7.13;;;2.80;99.90;;;;;;5017385;28;20450;-49
2021/03/05 03:12:42;;;;;;;17.63;6.53;;;2.80;99.90;;;;;;5017336;28;20874;-50
2021/03/05 03:15:13;;;;;;;17.37;7.10;;;2.90;99.90;;;;;;5024835;28;20541;-48
2021/03/05 03:17:44;;;;;;;32.87;9.77;;;2.80;99.90;;;;;;5037104;28;20519;-49
2021/03/05 03:20:15;;;;;;;17.60;7.43;;;2.80;99.90;;;;;;5029587;28;20477;-47
2021/03/05 03:22:44;;;;;;;19.23;8.13;;;2.70;99.90;;;;;;5016536;28;20814;-47
2021/03/05 03:25:14;;;;;;;23.27;9.70;;;2.80;99.90;;;;;;5017092;28;20509;-45
2021/03/05 03:27:42;;;;;;;18.70;7.37;;;2.70;99.90;;;;;;5017040;28;20926;-47
2021/03/05 03:30:12;;;;;;;22.13;7.77;;;2.70;99.90;;;;;;5017612;28;20466;-47
2021/03/05 03:32:41;;;;;;;16.47;7.00;;;2.70;99.90;;;;;;5017048;28;20509;-49
2021/03/05 03:35:13;;;;;;;18.10;6.40;;;2.60;99.90;;;;;;5016744;28;20457;-48
2021/03/05 03:37:42;;;;;;;23.20;8.33;;;2.60;99.90;;;;;;5016904;28;20450;-47
2021/03/05 03:40:13;;;;;;;19.40;6.57;;;2.60;99.90;;;;;;5016786;28;20509;-48
2021/03/05 03:42:41;;;;;;;19.53;7.40;;;2.60;99.90;;;;;;5016640;28;20517;-48
2021/03/05 03:45:12;;;;;;;17.23;6.60;;;2.60;99.90;;;;;;5016056;28;20897;-48
2021/03/05 03:47:41;;;;;;;20.53;6.50;;;2.50;99.90;;;;;;5016445;28;20505;-47
2021/03/05 03:50:14;;;;;;;21.17;6.57;;;2.50;99.90;;;;;;5023239;28;20782;-44
2021/03/05 07:23:01;;;;;;;6.53;3.50;;;2.50;99.90;;;;;;5420994;23;20489;-53
2021/03/05 07:25:31;;;;;;;9.10;3.73;;;2.60;99.90;;;;;;5028452;28;20461;-48
2021/03/05 07:27:58;;;;;;;7.40;3.70;;;2.60;99.90;;;;;;5028195;28;20433;-47
2021/03/05 07:30:28;;;;;;;8.53;4.20;;;2.70;99.90;;;;;;5023803;28;20453;-50
2021/03/05 07:32:59;;;;;;;4.33;3.07;;;2.70;99.90;;;;;;5023066;28;20833;-47
2021/03/05 07:35:32;;;;;;;6.97;3.77;;;2.80;99.90;;;;;;5032610;28;20434;-48
2021/03/05 07:38:05;;;;;;;4.70;3.03;;;2.90;99.90;;;;;;5036396;28;20964;-48
2021/03/05 07:40:44;;;;;;;7.17;3.23;;;3.00;99.90;;;;;;5036601;28;20525;-47
2021/03/05 07:43:13;;;;;;;4.63;3.27;;;3.10;99.90;;;;;;5027158;28;20933;-46
2021/03/05 07:45:41;;;;;;;6.73;2.93;;;3.10;99.90;;;;;;5026611;28;20460;-48
2021/03/05 07:48:12;;;;;;;4.50;2.97;;;3.20;99.90;;;;;;5026891;28;20445;-47
2021/03/05 07:50:41;;;;;;;6.43;3.50;;;3.30;99.90;;;;;;5026006;28;20464;-44
2021/03/05 07:53:11;;;;;;;4.60;3.90;;;3.30;99.90;;;;;;5026209;28;20735;-49
2021/03/05 07:55:41;;;;;;;5.10;3.93;;;3.30;99.90;;;;;;5022981;28;20452;-48
2021/03/05 07:58:10;;;;;;;5.43;2.80;;;3.40;99.90;;;;;;5018804;28;20544;-47
2021/03/05 08:00:49;;;;;;;7.40;3.50;;;3.40;99.90;;;;;;5008221;28;20794;-50
2021/03/05 08:03:19;;;;;;;5.33;3.20;;;3.50;99.90;;;;;;5006811;28;20852;-50
2021/03/05 08:05:49;;;;;;;5.43;3.57;;;3.50;99.90;;;;;;5018931;28;20452;-47
2021/03/05 08:08:21;;;;;;;4.43;2.77;;;3.60;99.90;;;;;;5001552;28;20825;-49
2021/03/05 08:10:55;;;;;;;6.17;4.17;;;3.60;99.90;;;;;;5018466;28;20878;-49
2021/03/05 08:13:52;;;;;;;9.17;2.90;;;3.70;99.90;;;;;;5018335;28;20464;-49
2021/03/05 08:16:41;;;;;;;5.00;3.57;;;3.70;99.90;;;;;;5006491;28;20476;-45
2021/03/05 08:19:49;;;;;;;6.00;3.20;;;3.80;99.90;;;;;;5009816;28;20535;-49
2021/03/05 08:22:17;;;;;;;4.20;2.03;;;3.90;99.90;;;;;;5023183;28;20952;-46
2021/03/05 08:24:48;;;;;;;3.77;2.30;;;4.00;99.90;;;;;;5005155;28;20827;-46
2021/03/05 08:27:19;;;;;;;3.13;2.63;;;4.00;99.90;;;;;;5022715;28;20480;-44
2021/03/05 08:30:01;;;;;;;6.67;4.30;;;4.00;99.90;;;;;;5014316;28;20460;-49
2021/03/05 08:33:02;;;;;;;9.20;4.10;;;4.10;99.90;;;;;;5022264;28;20456;-48
2021/03/05 08:35:51;;;;;;;10.67;3.90;;;4.10;99.90;;;;;;5022664;28;20900;-48
2021/03/05 08:38:34;;;;;;;7.37;3.30;;;4.20;99.90;;;;;;5017994;28;20448;-46
2021/03/05 08:41:05;;;;;;;6.90;3.53;;;4.30;99.90;;;;;;5019864;28;20523;-48
2021/03/05 08:43:38;;;;;;;9.13;3.70;;;4.60;99.90;;;;;;5006266;28;20772;-48
2021/03/05 08:46:08;;;;;;;3.30;2.50;;;4.70;99.90;;;;;;5009939;28;20488;-49
2021/03/05 08:48:41;;;;;;;5.63;3.40;;;4.60;99.90;;;;;;5007472;28;20918;-49
2021/03/05 08:51:15;;;;;;;9.17;3.30;;;4.70;99.90;;;;;;5004752;28;20813;-48
2021/03/05 08:53:45;;;;;;;4.30;3.53;;;4.80;99.90;;;;;;5010060;28;20771;-49
2021/03/05 08:56:18;;;;;;;6.93;3.73;;;4.90;99.90;;;;;;5011102;28;20850;-51
2021/03/05 08:58:57;;;;;;;8.07;3.40;;;4.90;99.90;;;;;;5010102;28;20924;-49
2021/03/05 09:01:34;;;;;;;4.67;2.97;;;5.50;99.90;;;;;;5010773;28;21061;-50
2021/03/05 09:04:13;;;;;;;13.67;3.17;;;6.30;99.90;;;;;;5008256;28;20463;-49
2021/03/05 09:06:52;;;;;;;8.60;3.40;;;7.40;99.90;;;;;;5006692;28;20500;-47
2021/03/05 09:09:23;;;;;;;6.27;3.97;;;8.70;99.90;;;;;;5003685;28;20452;-50
2021/03/05 09:12:13;;;;;;;5.50;3.40;;;9.90;99.90;;;;;;5001289;28;20512;-50
2021/03/05 09:14:42;;;;;;;5.70;4.07;;;11.30;99.90;;;;;;4993857;28;20878;-50
2021/03/05 09:17:12;;;;;;;6.27;4.40;;;12.80;99.60;;;;;;5002426;28;20791;-47
2021/03/05 09:19:42;;;;;;;5.30;3.90;;;13.80;90.80;;;;;;4998411;28;20767;-48
2021/03/05 09:22:16;;;;;;;4.97;3.97;;;14.10;83.00;;;;;;5003120;28;20806;-49
2021/03/05 09:24:55;;;;;;;6.93;4.57;;;14.00;78.50;;;;;;4998038;28;20808;-48
2021/03/05 09:27:26;;;;;;;7.23;5.03;;;14.60;78.10;;;;;;5003736;28;20509;-46
2021/03/05 09:29:55;;;;;;;5.80;5.00;;;15.60;70.90;;;;;;5012062;28;20835;-45
2021/03/05 09:32:25;;;;;;;5.63;4.53;;;15.00;68.60;;;;;;5006480;28;20940;-45
2021/03/05 09:34:58;;;;;;;5.43;3.73;;;13.70;72.00;;;;;;5001911;28;20779;-45
2021/03/05 09:37:28;;;;;;;7.10;5.07;;;12.30;70.80;;;;;;5008315;28;20830;-44
2021/03/05 09:39:58;;;;;;;8.43;4.40;;;11.10;74.30;;;;;;5000083;28;21032;-46
2021/03/05 09:42:51;;;;;;;6.43;3.17;;;10.30;78.90;;;;;;5002953;28;21295;-44
2021/03/05 09:45:41;;;;;;;7.73;3.47;;;9.80;86.20;;;;;;5004041;28;20477;-44
2021/03/05 09:48:11;;;;;;;4.40;3.20;;;9.20;89.40;;;;;;5001431;28;20469;-47
2021/03/05 09:50:41;;;;;;;5.70;3.90;;;8.70;89.30;;;;;;5004544;28;20786;-48
2021/03/05 09:53:24;;;;;;;4.73;3.30;;;8.60;92.00;;;;;;4996681;28;20570;-45
2021/03/05 09:55:53;;;;;;;5.70;2.90;;;9.50;91.30;;;;;;5003856;28;20442;-44
2021/03/05 09:58:22;;;;;;;4.73;3.33;;;10.70;88.10;;;;;;5127651;22;20767;-45
2021/03/05 10:00:52;;;;;;;4.60;3.30;;;11.40;82.20;;;;;;5024379;28;20468;-47
2021/03/05 10:03:21;;;;;;;3.90;3.17;;;11.80;76.80;;;;;;5023366;28;20952;-44
2021/03/05 10:05:50;;;;;;;3.70;3.00;;;12.00;77.40;;;;;;5031565;28;20789;-45
2021/03/05 10:08:23;;;;;;;4.60;2.90;;;13.20;70.90;;;;;;5036716;28;20789;-50
2021/03/05 10:11:07;;;;;;;4.13;3.20;;;14.60;65.30;;;;;;5019263;28;20792;-52
2021/03/05 10:13:50;;;;;;;6.23;2.73;;;15.70;60.00;;;;;;5023806;28;20456;-47
2021/03/05 10:16:21;;;;;;;3.60;2.40;;;15.50;54.60;;;;;;5029901;28;20801;-46
2021/03/05 10:18:50;;;;;;;3.60;2.33;;;14.80;55.90;;;;;;5029741;28;20782;-50
2021/03/05 10:21:21;;;;;;;4.67;2.50;;;14.80;55.00;;;;;;5023064;28;20790;-47
2021/03/05 10:23:50;;;;;;;4.33;2.53;;;15.40;54.80;;;;;;5022526;28;20902;-47
2021/03/05 10:26:21;;;;;;;2.53;2.33;;;15.90;52.20;;;;;;5022769;28;20867;-45
2021/03/05 10:28:56;;;;;;;3.27;2.40;;;16.10;52.00;;;;;;5026308;28;20789;-45
2021/03/05 10:31:38;;;;;;;4.60;2.27;;;15.40;50.50;;;;;;5019293;28;20448;-46
2021/03/05 10:34:06;;;;;;;3.73;2.40;;;15.30;51.30;;;;;;5025123;28;20458;-47
2021/03/05 10:36:34;;;;;;;3.40;1.93;;;15.70;51.20;;;;;;5023752;28;20923;-50
2021/03/05 10:39:03;;;;;;;3.57;2.00;;;15.90;47.40;;;;;;5027776;28;20929;-46
2021/03/05 10:41:31;;;;;;;1.70;1.50;;;15.00;47.00;;;;;;5028795;28;20777;-51
2021/03/05 10:44:01;;;;;;;8.50;1.97;;;15.10;47.50;;;;;;5023786;28;20749;-45
2021/03/05 10:46:30;;;;;;;6.60;2.17;;;15.30;46.30;;;;;;5028344;28;20979;-45
2021/03/05 10:48:59;;;;;;;3.53;2.13;;;15.00;47.70;;;;;;5026823;28;20772;-45
2021/03/05 10:51:27;;;;;;;2.30;1.90;;;15.10;48.60;;;;;;5026612;28;20772;-47
2021/03/05 10:53:54;;;;;;;2.27;1.50;;;15.50;46.70;;;;;;5025844;28;21107;-49
2021/03/05 10:56:23;;;;;;;3.90;2.90;;;15.70;44.60;;;;;;5023435;28;20477;-46
2021/03/05 10:58:51;;;;;;;5.77;2.23;;;15.80;45.80;;;;;;5027884;28;20871;-46
2021/03/05 11:01:21;;;;;;;5.07;2.13;;;15.70;45.90;;;;;;5030804;28;20869;-50
2021/03/05 11:03:49;;;;;;;3.77;2.10;;;15.70;45.00;;;;;;5029826;28;20465;-48
2021/03/05 11:06:18;;;;;;;2.70;2.07;;;15.70;44.70;;;;;;5027233;28;20465;-47
2021/03/05 11:08:46;;;;;;;2.43;2.00;;;15.40;45.00;;;;;;5028183;28;20476;-51
2021/03/05 11:11:13;;;;;;;2.90;2.37;;;15.20;45.60;;;;;;5032022;28;20460;-44
2021/03/05 11:13:42;;;;;;;2.80;2.27;;;14.90;46.10;;;;;;5028021;28;21001;-45
2021/03/05 11:16:10;;;;;;;3.07;2.47;;;14.60;46.30;;;;;;5020843;28;20786;-46
2021/03/05 11:18:39;;;;;;;4.10;2.10;;;14.40;47.00;;;;;;5024654;28;20961;-47
2021/03/05 11:21:07;;;;;;;2.00;1.53;;;14.00;45.10;;;;;;5026531;28;20817;-48
2021/03/05 11:23:36;;;;;;;3.07;2.10;;;13.60;45.90;;;;;;5031332;28;20452;-50
2021/03/05 11:26:05;;;;;;;8.30;2.27;;;13.20;45.00;;;;;;5022115;28;20472;-44
2021/03/05 11:28:32;;;;;;;2.37;2.17;;;12.90;45.40;;;;;;5029954;28;20466;-44
2021/03/05 11:31:00;;;;;;;14.80;2.00;;;12.50;45.60;;;;;;5036238;28;20480;-46
2021/03/05 11:33:29;;;;;;;3.63;1.93;;;11.90;45.80;;;;;;5021369;28;20810;-47
2021/03/05 11:35:59;;;;;;;2.90;2.00;;;11.30;47.20;;;;;;5030829;28;20955;-52
2021/03/05 11:38:28;;;;;;;3.73;2.20;;;10.70;48.50;;;;;;5029706;28;20440;-46
2021/03/05 11:40:56;;;;;;;5.53;2.77;;;10.30;50.10;;;;;;5033413;28;20453;-44
2021/03/05 11:43:25;;;;;;;4.87;2.43;;;10.00;50.80;;;;;;5031151;28;20801;-48
2021/03/05 11:45:53;;;;;;;4.03;2.30;;;9.80;52.90;;;;;;5034599;28;20448;-45
2021/03/05 11:48:22;;;;;;;4.67;2.70;;;9.60;53.40;;;;;;5030603;28;20841;-48
2021/03/05 11:50:49;;;;;;;3.27;1.60;;;9.40;54.00;;;;;;5035057;28;20540;-51
2021/03/05 11:53:18;;;;;;;3.50;2.40;;;9.20;53.80;;;;;;5033387;28;20472;-46
2021/03/05 11:55:47;;;;;;;2.07;1.30;;;9.10;54.10;;;;;;5022887;28;20465;-47
2021/03/05 11:58:15;;;;;;;4.33;1.73;;;9.00;54.50;;;;;;5024221;28;20449;-48
2021/03/05 12:00:43;;;;;;;3.83;2.30;;;8.90;53.80;;;;;;5018331;28;20783;-46
2021/03/05 12:03:12;;;;;;;5.93;3.40;;;8.90;54.30;;;;;;5009592;28;20454;-46
2021/03/05 12:05:41;;;;;;;3.00;2.40;;;8.80;55.10;;;;;;5015712;28;20824;-49
2021/03/05 12:08:09;;;;;;;3.50;2.20;;;8.80;54.60;;;;;;5025943;28;20821;-50
2021/03/05 12:10:39;;;;;;;2.73;1.60;;;8.80;55.40;;;;;;5025708;28;20444;-50
2021/03/05 12:13:10;;;;;;;2.97;1.50;;;8.80;55.30;;;;;;5026071;28;20462;-47
2021/03/05 12:15:37;;;;;;;2.33;1.53;;;8.80;54.80;;;;;;5030631;28;20463;-53
2021/03/05 12:18:05;;;;;;;2.23;1.40;;;8.70;54.00;;;;;;5033852;28;20446;-51
2021/03/05 12:20:32;;;;;;;3.07;1.17;;;8.50;53.80;;;;;;5022463;28;20447;-47
2021/03/05 12:23:00;;;;;;;3.30;1.00;;;8.50;54.10;;;;;;5020859;28;20553;-50
2021/03/05 12:25:27;;;;;;;1.70;1.13;;;8.50;53.80;;;;;;5034201;28;20730;-48
2021/03/05 12:27:55;;;;;;;1.87;0.87;;;8.50;53.70;;;;;;5032015;28;20484;-46
2021/03/05 12:30:24;;;;;;;2.37;1.07;;;8.50;52.10;;;;;;5027770;28;20762;-48
2021/03/05 12:32:51;;;;;;;1.63;1.20;;;8.40;50.60;;;;;;5030509;28;20797;-48
2021/03/05 12:35:19;;;;;;;3.57;1.00;;;8.50;51.40;;;;;;5029587;28;20774;-47
2021/03/05 12:37:47;;;;;;;5.00;1.23;;;8.50;51.20;;;;;;5024804;28;20464;-48
2021/03/05 12:40:15;;;;;;;2.13;1.23;;;8.60;50.50;;;;;;5024416;28;20763;-48
2021/03/05 12:42:43;;;;;;;2.00;1.30;;;8.60;50.30;;;;;;5029113;28;20864;-51
2021/03/05 12:45:13;;;;;;;4.80;1.33;;;8.60;49.80;;;;;;5033508;28;20470;-52
2021/03/05 12:47:40;;;;;;;2.17;1.10;;;8.60;50.00;;;;;;5035297;28;20468;-46
2021/03/05 12:50:09;;;;;;;3.87;1.60;;;8.70;50.60;;;;;;5028524;28;20449;-46
2021/03/05 12:52:36;;;;;;;2.70;1.20;;;8.60;51.00;;;;;;5026113;28;20775;-45
2021/03/05 12:55:03;;;;;;;3.27;1.90;;;8.50;51.60;;;;;;5029730;28;20747;-47
2021/03/05 12:57:31;;;;;;;9.43;2.17;;;8.50;51.40;;;;;;5016640;28;20755;-45
2021/03/05 12:59:58;;;;;;;1.57;1.43;;;8.50;49.90;;;;;;5036245;28;20480;-52
2021/03/05 13:02:27;;;;;;;5.37;1.43;;;8.50;50.20;;;;;;5030062;28;20429;-46
2021/03/05 13:04:54;;;;;;;3.70;1.23;;;8.60;50.80;;;;;;5028726;28;20758;-45
2021/03/05 13:07:21;;;;;;;4.80;1.07;;;8.80;50.70;;;;;;5025808;28;20501;-47
2021/03/05 13:09:48;;;;;;;2.03;1.00;;;8.90;50.20;;;;;;5026852;28;20766;-46
2021/03/05 13:12:18;;;;;;;1.87;1.20;;;8.90;50.40;;;;;;5029210;28;20744;-47
2021/03/05 13:14:46;;;;;;;1.77;1.20;;;8.90;51.00;;;;;;5036384;28;20829;-45
2021/03/05 13:17:13;;;;;;;3.00;1.00;;;8.90;51.10;;;;;;5036796;28;20515;-49
2021/03/05 13:19:42;;;;;;;1.37;1.00;;;8.90;51.90;;;;;;5030381;28;20441;-46
2021/03/05 13:22:09;;;;;;;2.20;1.30;;;9.10;51.80;;;;;;5028875;28;20429;-48
2021/03/05 13:24:36;;;;;;;2.23;1.50;;;9.20;51.60;;;;;;5029725;28;20487;-50
2021/03/05 13:27:04;;;;;;;1.80;1.07;;;9.30;51.00;;;;;;5029036;28;20795;-46
2021/03/05 13:29:32;;;;;;;3.20;1.53;;;9.40;48.70;;;;;;5027638;28;20997;-47
2021/03/05 13:31:59;;;;;;;1.70;1.10;;;9.60;47.90;;;;;;5033223;28;20455;-46
2021/03/05 13:34:26;;;;;;;3.73;3.30;;;10.00;47.30;;;;;;5027259;28;20452;-48
2021/03/05 13:36:54;;;;;;;2.20;0.90;;;10.20;46.40;;;;;;5038214;28;20452;-47
2021/03/05 13:39:22;;;;;;;2.67;1.30;;;10.30;45.80;;;;;;5030137;28;20835;-47
2021/03/05 13:41:49;;;;;;;1.87;1.00;;;10.20;45.40;;;;;;5030175;28;20539;-46
2021/03/05 13:44:19;;;;;;;3.47;1.10;;;10.10;45.30;;;;;;5040660;28;20455;-46
2021/03/05 13:46:46;;;;;;;2.37;1.27;;;10.00;45.70;;;;;;5041656;28;20479;-46
2021/03/05 13:49:13;;;;;;;2.00;1.00;;;10.00;45.90;;;;;;5035188;28;20433;-46
2021/03/05 13:51:40;;;;;;;2.67;1.53;;;10.00;45.00;;;;;;5026041;28;20451;-49
2021/03/05 13:54:09;;;;;;;1.70;1.23;;;10.00;44.40;;;;;;5028867;28;20781;-50
2021/03/05 13:56:36;;;;;;;3.10;1.70;;;10.00;44.70;;;;;;5026088;28;20784;-48
2021/03/05 13:59:03;;;;;;;2.63;1.33;;;9.90;44.00;;;;;;5028795;28;20607;-48
2021/03/05 14:01:31;;;;;;;2.03;1.27;;;9.80;43.90;;;;;;5034792;28;20472;-47
2021/03/05 14:03:58;;;;;;;6.60;0.90;;;9.70;43.80;;;;;;5040643;28;20491;-46
2021/03/05 14:06:25;;;;;;;3.23;1.00;;;9.70;43.60;;;;;;5021929;28;20448;-50
2021/03/05 14:08:52;;;;;;;2.47;0.80;;;9.60;42.90;;;;;;5039370;28;20905;-51
2021/03/05 14:11:21;;;;;;;1.77;1.03;;;9.60;42.70;;;;;;5038627;28;20439;-46
2021/03/05 14:13:48;;;;;;;2.07;0.87;;;9.50;42.30;;;;;;5036058;28;20777;-49
2021/03/05 14:16:15;;;;;;;1.00;0.70;;;9.30;42.70;;;;;;5031932;28;20528;-45
2021/03/05 14:18:43;;;;;;;1.73;1.00;;;9.20;43.30;;;;;;5037301;28;20443;-46
2021/03/05 14:21:10;;;;;;;1.20;0.80;;;9.10;43.70;;;;;;5034966;28;20756;-46
2021/03/05 14:23:38;;;;;;;2.53;1.30;;;9.00;44.00;;;;;;5027760;28;20869;-47
2021/03/05 14:26:07;;;;;;;4.00;0.97;;;9.00;45.30;;;;;;5029979;28;20449;-46
2021/03/05 14:28:35;;;;;;;2.53;1.17;;;9.00;44.90;;;;;;5020898;28;20549;-46
2021/03/05 14:31:03;;;;;;;2.50;1.40;;;9.00;46.20;;;;;;5028132;28;20451;-46
2021/03/05 14:33:30;;;;;;;3.30;1.13;;;8.90;45.60;;;;;;5035962;28;20915;-48
2021/03/05 14:36:00;;;;;;;1.93;1.20;;;8.90;44.90;;;;;;5012727;28;20775;-50
2021/03/05 14:38:27;;;;;;;1.97;1.10;;;8.80;44.40;;;;;;5040671;28;20447;-51
2021/03/05 14:44:18;;;;;;;3.93;1.20;;;8.80;43.80;;;;;;5039137;28;20440;-50
2021/03/05 14:46:45;;;;;;;1.63;0.70;;;9.10;43.40;;;;;;5032141;28;20484;-46
2021/03/05 14:49:16;;;;;;;1.50;0.90;;;9.10;43.60;;;;;;5042273;28;20750;-45
2021/03/05 14:51:46;;;;;;;1.50;1.13;;;9.10;43.20;;;;;;5042114;28;20455;-45
2021/03/05 14:54:14;;;;;;;2.30;0.93;;;9.20;44.10;;;;;;5040550;28;20752;-50
2021/03/05 14:56:43;;;;;;;2.47;1.30;;;9.30;44.40;;;;;;5020542;28;20490;-49
2021/03/05 14:59:12;;;;;;;1.93;1.37;;;9.40;45.30;;;;;;5029712;28;20948;-45
2021/03/05 15:01:42;;;;;;;2.93;1.70;;;9.40;43.70;;;;;;5035797;28;20794;-45
2021/03/05 15:04:12;;;;;;;4.40;1.40;;;9.50;44.50;;;;;;5024890;28;20779;-44
2021/03/05 15:06:41;;;;;;;2.90;1.47;;;9.50;43.60;;;;;;5023261;28;20973;-44
2021/03/05 15:09:13;;;;;;;2.60;1.20;;;9.40;43.60;;;;;;5031896;28;20790;-47
2021/03/05 15:11:43;;;;;;;2.27;1.03;;;9.30;43.40;;;;;;5023156;28;20448;-44
2021/03/05 15:14:15;;;;;;;5.37;1.70;;;9.20;43.60;;;;;;5022500;28;20812;-46
2021/03/05 15:16:46;;;;;;;4.87;1.33;;;9.20;43.60;;;;;;5026580;28;20787;-47
2021/03/05 15:19:16;;;;;;;4.10;1.20;;;9.20;43.60;;;;;;5022694;28;20806;-46
2021/03/05 15:21:45;;;;;;;2.80;1.00;;;9.20;43.20;;;;;;5029330;28;20943;-49
2021/03/05 15:24:13;;;;;;;2.80;1.40;;;9.20;43.80;;;;;;5021755;28;20817;-46
2021/03/05 15:26:42;;;;;;;1.77;1.20;;;9.10;43.90;;;;;;5023005;28;20809;-48
2021/03/05 15:29:10;;;;;;;1.17;0.70;;;9.20;44.10;;;;;;5032238;28;20471;-48
2021/03/05 15:31:39;;;;;;;3.03;1.20;;;9.10;43.50;;;;;;5031055;28;20520;-44
2021/03/05 15:34:09;;;;;;;1.30;0.90;;;9.00;44.00;;;;;;5025526;28;20444;-45
2021/03/05 15:36:40;;;;;;;5.37;0.97;;;8.90;43.70;;;;;;5025350;28;20451;-45
2021/03/05 15:39:09;;;;;;;3.60;1.27;;;8.70;44.80;;;;;;5032242;28;20831;-48
2021/03/05 15:41:37;;;;;;;1.10;1.00;;;8.70;44.90;;;;;;5013853;28;20859;-50
2021/03/05 15:44:07;;;;;;;1.57;1.10;;;8.60;44.80;;;;;;5027569;28;20790;-50
2021/03/05 15:46:35;;;;;;;1.97;0.97;;;8.40;44.30;;;;;;5036069;28;20815;-47
2021/03/05 15:49:04;;;;;;;1.43;0.93;;;8.30;44.30;;;;;;5019143;28;20855;-45
2021/03/05 15:51:33;;;;;;;2.77;1.20;;;8.40;44.90;;;;;;5022369;28;20806;-48
2021/03/05 15:54:01;;;;;;;5.13;1.13;;;8.40;45.20;;;;;;5025348;28;20461;-50
2021/03/05 15:56:29;;;;;;;1.67;1.00;;;8.40;45.20;;;;;;5019075;28;20805;-47
2021/03/05 15:59:01;;;;;;;3.00;1.13;;;8.30;45.10;;;;;;5025488;28;20487;-46
2021/03/05 16:01:29;;;;;;;1.10;0.80;;;8.20;44.90;;;;;;5026015;28;20796;-46
2021/03/05 16:03:58;;;;;;;1.90;0.83;;;8.10;44.80;;;;;;5031157;28;20782;-46
2021/03/05 16:06:27;;;;;;;4.93;1.23;;;8.00;44.90;;;;;;5016358;28;20805;-50
2021/03/05 16:08:57;;;;;;;5.17;2.43;;;7.90;45.20;;;;;;5028327;28;20786;-47
2021/03/05 16:11:25;;;;;;;1.70;0.90;;;7.80;45.80;;;;;;5025722;28;20461;-49
2021/03/05 16:13:54;;;;;;;2.03;1.00;;;7.80;46.20;;;;;;5020230;28;20792;-46
2021/03/05 16:16:22;;;;;;;1.60;1.30;;;7.80;45.50;;;;;;5020124;28;20772;-51
2021/03/05 16:18:51;;;;;;;2.60;0.93;;;7.80;45.90;;;;;;5026956;28;20856;-46
2021/03/05 16:21:22;;;;;;;1.83;1.10;;;7.70;46.40;;;;;;5020478;28;20537;-47
2021/03/05 16:23:50;;;;;;;2.70;0.97;;;7.70;46.50;;;;;;5020194;28;20917;-46
2021/03/05 16:26:21;;;;;;;1.60;1.00;;;7.60;46.90;;;;;;5029907;28;20964;-46
2021/03/05 16:28:50;;;;;;;2.73;1.00;;;7.50;47.20;;;;;;5025608;28;20808;-47
2021/03/05 16:31:18;;;;;;;3.80;1.50;;;7.50;47.40;;;;;;5027572;28;20777;-44
2021/03/05 16:33:47;;;;;;;3.47;1.40;;;7.50;48.10;;;;;;5029411;28;20618;-44
2021/03/05 16:36:18;;;;;;;3.73;1.20;;;7.40;48.50;;;;;;5030163;28;20468;-45
2021/03/05 16:38:47;;;;;;;4.00;1.80;;;7.40;48.60;;;;;;5022291;28;20902;-46
2021/03/05 16:41:15;;;;;;;2.20;1.40;;;7.40;48.70;;;;;;5022638;28;20953;-47
2021/03/05 16:43:45;;;;;;;3.33;1.23;;;7.40;49.30;;;;;;5021687;28;20460;-47